Terminal Aerodrome Forecast
Issued by NWS

Home | Current Version | Previous Version | Graphics & Text | Print | Product List | Glossary On
Versions: 1 2 3 4 5 6 7 8 9 10 11 12 13 14 15 16
000
FTUS43 KBIS 082300
TAFDIK
TAF
KDIK 082332Z 0900/0924 31009KT 6SM FU FEW060
     FM090200 VRB05KT 5SM FU SKC
     FM091200 13006KT P6SM FEW040=

USA.gov is the U.S. government's official web portal to all federal, state and local government web resources and services.